Terminal Aerodrome Forecast
Issued by NWS Jackson, MS

Current Version | Previous Version | Text Only | Print | Product List | Glossary On
Versions: 1 2 3 4 5 6 7 8 9 10 11 12 13
000
FTUS44 KMEG 271218 AAA
TAFTUP
TAF AMD
KTUP 271218Z 2712/2812 33012G20KT P6SM OVC025
     FM271500 34010KT P6SM OVC025
     FM272200 35008KT P6SM SCT030 SCT250
     FM280000 00000KT P6SM SCT150=

USA.gov is the U.S. government's official web portal to all federal, state and local government web resources and services.